createdAt,value
2022-09-20T00:00:20.152Z,60.57
2022-09-20T00:01:29.205Z,60.56
2022-09-20T00:02:32.218Z,60.57
2022-09-20T00:03:36.550Z,60.64
2022-09-20T00:04:39.641Z,60.68
2022-09-20T00:05:45.586Z,60.72
2022-09-20T00:06:48.744Z,60.75
2022-09-20T00:07:51.592Z,60.82
2022-09-20T00:08:54.942Z,60.79
2022-09-20T00:09:58.033Z,60.80
2022-09-20T00:11:03.376Z,60.80
2022-09-20T00:12:06.603Z,60.69
2022-09-20T00:13:12.934Z,60.76
2022-09-20T00:14:16.029Z,60.93
2022-09-20T00:15:19.491Z,61.05
2022-09-20T00:16:26.339Z,61.06
2022-09-20T00:17:29.420Z,61.23
2022-09-20T00:18:32.350Z,61.24
2022-09-20T00:19:35.235Z,61.33
2022-09-20T00:20:49.023Z,61.39
2022-09-20T00:21:52.012Z,61.47
2022-09-20T00:22:55.404Z,61.66
2022-09-20T00:23:58.941Z,61.70
2022-09-20T00:25:01.933Z,61.80
2022-09-20T00:26:05.194Z,61.67
2022-09-20T00:27:08.224Z,61.68
2022-09-20T00:28:11.709Z,61.64
2022-09-20T00:29:14.716Z,61.58
2022-09-20T00:30:18.196Z,61.57
2022-09-20T00:31:21.302Z,61.46
2022-09-20T00:32:24.353Z,61.57
2022-09-20T00:33:45.829Z,61.68
2022-09-20T00:35:07.243Z,61.88
2022-09-20T00:36:10.342Z,61.86
2022-09-20T00:37:13.197Z,61.91
2022-09-20T00:38:16.331Z,61.97
2022-09-20T00:39:19.281Z,62.00
2022-09-20T00:40:26.376Z,61.89
2022-09-20T00:41:31.378Z,61.84
2022-09-20T00:42:35.277Z,61.85
2022-09-20T00:43:44.142Z,61.88
2022-09-20T00:45:02.144Z,62.01
2022-09-20T00:46:08.111Z,62.12
2022-09-20T00:47:34.040Z,62.32
2022-09-20T00:48:36.950Z,62.37
2022-09-20T00:49:40.016Z,62.47
2022-09-20T00:50:58.627Z,62.58
2022-09-20T00:52:02.177Z,62.66
2022-09-20T00:53:32.642Z,62.70
2022-09-20T00:54:36.409Z,62.71
2022-09-20T00:55:43.177Z,62.67
2022-09-20T00:56:46.270Z,62.66
2022-09-20T00:57:49.759Z,62.64
2022-09-20T00:58:56.175Z,62.65
2022-09-20T00:59:59.251Z,62.65
2022-09-20T01:01:04.365Z,62.64
2022-09-20T01:02:17.011Z,62.75
2022-09-20T01:03:22.345Z,62.79
2022-09-20T01:04:27.966Z,62.78
2022-09-20T01:05:30.808Z,62.74
2022-09-20T01:06:34.990Z,62.71
2022-09-20T01:07:38.041Z,62.59
2022-09-20T01:08:44.436Z,62.50
2022-09-20T01:09:47.804Z,62.50
2022-09-20T01:10:52.138Z,62.56
2022-09-20T01:11:57.788Z,62.46
2022-09-20T01:13:00.655Z,62.51
2022-09-20T01:14:04.073Z,62.50
2022-09-20T01:15:09.072Z,62.62
2022-09-20T01:16:16.784Z,62.62
2022-09-20T01:17:23.334Z,62.53
2022-09-20T01:18:28.039Z,62.51
2022-09-20T01:20:01.558Z,62.55
2022-09-20T01:21:06.829Z,62.56
2022-09-20T01:22:15.954Z,62.58
2022-09-20T01:23:40.358Z,62.64
2022-09-20T01:24:50.291Z,62.57
2022-09-20T01:26:26.898Z,62.48
2022-09-20T01:27:45.421Z,62.44
2022-09-20T01:28:51.741Z,62.34
2022-09-20T01:31:27.074Z,61.91
2022-09-20T01:32:33.694Z,61.75
2022-09-20T01:33:43.143Z,61.48
2022-09-20T01:34:49.493Z,61.38
2022-09-20T01:35:54.280Z,61.30
2022-09-20T01:37:01.073Z,61.18
2022-09-20T01:38:07.623Z,61.14
2022-09-20T01:39:26.347Z,61.10
2022-09-20T01:42:01.524Z,60.94
2022-09-20T01:43:20.011Z,60.96
2022-09-20T01:44:26.583Z,61.24
2022-09-20T01:45:32.002Z,61.40
2022-09-20T01:46:36.734Z,61.59
2022-09-20T01:48:10.622Z,61.56
2022-09-20T01:49:17.438Z,61.51
2022-09-20T01:50:39.052Z,61.37
2022-09-20T01:52:01.923Z,61.32
2022-09-20T01:53:28.027Z,61.27
2022-09-20T01:54:55.844Z,61.24
2022-09-20T01:56:05.324Z,61.28
2022-09-20T01:57:25.024Z,61.43
2022-09-20T01:58:46.963Z,61.34
2022-09-20T02:00:13.056Z,61.19
2022-09-20T02:01:39.059Z,61.22
2022-09-20T02:03:00.783Z,61.19
2022-09-20T02:04:13.398Z,61.20
2022-09-20T02:05:31.863Z,61.23
2022-09-20T02:07:00.675Z,61.24
2022-09-20T02:08:29.705Z,61.22
2022-09-20T02:09:45.128Z,61.25
2022-09-20T02:11:11.276Z,61.28
2022-09-20T02:12:33.687Z,61.34
2022-09-20T02:13:52.630Z,61.43
2022-09-20T02:14:59.359Z,61.45
2022-09-20T02:16:21.193Z,61.59
2022-09-20T02:17:36.565Z,61.86
2022-09-20T02:19:16.638Z,61.95
2022-09-20T02:20:32.689Z,62.08
2022-09-20T02:21:47.877Z,62.23
2022-09-20T02:23:06.640Z,62.24
2022-09-20T02:24:19.553Z,62.32
2022-09-20T02:25:35.778Z,62.29
2022-09-20T02:27:02.024Z,62.24
2022-09-20T02:28:23.740Z,62.15
2022-09-20T02:29:51.234Z,61.99
2022-09-20T02:31:01.131Z,61.91
2022-09-20T02:32:24.379Z,61.83
2022-09-20T02:33:42.833Z,61.88
2022-09-20T02:35:07.392Z,61.90
2022-09-20T02:36:17.442Z,62.05
2022-09-20T02:37:35.800Z,61.96
2022-09-20T02:39:01.393Z,62.02
2022-09-20T02:40:26.234Z,62.07
2022-09-20T02:42:04.925Z,62.13
2022-09-20T02:44:49.660Z,61.98
2022-09-20T02:46:23.278Z,61.98
2022-09-20T02:47:38.633Z,61.89
2022-09-20T02:49:03.113Z,61.89
2022-09-20T02:50:27.727Z,61.82
2022-09-20T02:51:42.964Z,61.63
2022-09-20T02:53:23.471Z,61.61
2022-09-20T02:54:46.463Z,61.62
2022-09-20T02:56:08.157Z,61.78
2022-09-20T02:57:20.905Z,61.70
2022-09-20T02:58:42.702Z,61.86
2022-09-20T02:59:49.449Z,62.01
2022-09-20T03:00:56.069Z,62.18
2022-09-20T03:02:20.853Z,62.28
2022-09-20T03:03:43.838Z,62.30
2022-09-20T03:05:20.494Z,62.27
2022-09-20T03:06:30.870Z,62.17
2022-09-20T03:07:43.242Z,62.34
2022-09-20T03:08:52.545Z,62.43
2022-09-20T03:10:10.982Z,62.50
2022-09-20T03:11:50.895Z,62.47
2022-09-20T03:13:15.406Z,62.48
2022-09-20T03:14:25.088Z,62.57
2022-09-20T03:16:06.709Z,62.64
2022-09-20T03:17:25.387Z,62.69
2022-09-20T03:18:44.149Z,62.80
2022-09-20T03:20:08.757Z,62.94
2022-09-20T03:21:33.600Z,62.96
2022-09-20T03:22:55.378Z,63.15
2022-09-20T03:24:13.808Z,63.37
2022-09-20T03:25:26.384Z,63.56
2022-09-20T03:26:41.114Z,63.68
2022-09-20T03:28:11.665Z,63.71
2022-09-20T03:29:36.070Z,63.69
2022-09-20T03:30:54.784Z,63.66
2022-09-20T03:32:17.715Z,63.59
2022-09-20T03:33:41.157Z,63.64
2022-09-20T03:35:06.017Z,63.66
2022-09-20T03:36:34.081Z,63.83
2022-09-20T03:38:09.508Z,64.02
2022-09-20T03:39:24.882Z,64.12
2022-09-20T03:40:46.952Z,64.10
2022-09-20T03:42:26.774Z,64.08
2022-09-20T03:43:52.262Z,63.98
2022-09-20T03:45:14.924Z,63.85
2022-09-20T03:46:21.194Z,63.86
2022-09-20T03:48:02.585Z,63.66
2022-09-20T03:49:26.976Z,63.60
2022-09-20T03:50:53.467Z,63.51
2022-09-20T03:52:05.677Z,63.41
2022-09-20T03:53:26.852Z,63.35
2022-09-20T03:54:49.835Z,63.33
2022-09-20T03:56:07.520Z,63.28
2022-09-20T03:57:17.393Z,63.28
2022-09-20T03:58:27.481Z,63.20
2022-09-20T03:59:36.972Z,63.17
2022-09-20T04:02:18.862Z,63.09
2022-09-20T04:03:45.564Z,62.97
2022-09-20T04:04:52.062Z,62.90
2022-09-20T04:06:18.008Z,62.75
2022-09-20T04:07:43.026Z,62.60
2022-09-20T04:09:05.793Z,62.58
2022-09-20T04:10:31.859Z,62.56
2022-09-20T04:11:51.184Z,62.47
2022-09-20T04:13:32.569Z,62.41
2022-09-20T04:14:41.980Z,62.41
2022-09-20T04:16:03.789Z,62.33
2022-09-20T04:17:19.483Z,62.25
2022-09-20T04:18:34.833Z,62.21
2022-09-20T04:19:56.505Z,62.05
2022-09-20T04:21:20.467Z,61.99
2022-09-20T04:22:26.016Z,61.84
2022-09-20T04:23:44.736Z,61.82
2022-09-20T04:24:54.309Z,61.82
2022-09-20T04:26:00.793Z,61.66
2022-09-20T04:27:07.551Z,61.61
2022-09-20T04:28:28.942Z,61.66
2022-09-20T04:29:53.413Z,61.55
2022-09-20T04:31:00.029Z,61.54
2022-09-20T04:32:31.059Z,61.37
2022-09-20T04:33:37.751Z,61.33
2022-09-20T04:35:08.631Z,61.35
2022-09-20T04:36:30.877Z,61.36
2022-09-20T04:37:37.886Z,61.20
2022-09-20T04:38:41.512Z,61.22
2022-09-20T04:40:07.745Z,61.23
2022-09-20T04:41:39.824Z,61.20
2022-09-20T04:43:19.495Z,61.22
2022-09-20T04:44:47.039Z,61.15
2022-09-20T04:46:15.787Z,61.08
2022-09-20T04:47:47.110Z,61.09
2022-09-20T04:48:56.565Z,61.11
2022-09-20T04:50:34.906Z,61.07
2022-09-20T04:52:03.371Z,61.05
2022-09-20T04:53:18.575Z,60.94
2022-09-20T04:54:43.647Z,60.90
2022-09-20T04:55:59.713Z,60.84
2022-09-20T04:57:18.368Z,60.64
2022-09-20T04:58:35.551Z,60.51
2022-09-20T05:00:04.010Z,60.44
2022-09-20T05:01:34.625Z,60.43
2022-09-20T05:02:44.199Z,60.39
2022-09-20T05:04:16.764Z,60.37
2022-09-20T05:05:31.581Z,60.40
2022-09-20T05:07:00.798Z,60.50
2022-09-20T05:08:26.918Z,60.40
2022-09-20T05:09:54.507Z,60.34
2022-09-20T05:11:22.893Z,60.17
2022-09-20T05:12:33.834Z,60.08
2022-09-20T05:13:58.224Z,60.04
2022-09-20T05:15:30.051Z,60.00
2022-09-20T05:16:59.999Z,60.04
2022-09-20T05:18:21.997Z,60.08
2022-09-20T05:19:45.031Z,60.02
2022-09-20T05:21:06.836Z,60.06
2022-09-20T05:22:21.948Z,59.96
2022-09-20T05:23:46.689Z,59.89
2022-09-20T05:25:09.594Z,59.79
2022-09-20T05:26:23.197Z,59.70
2022-09-20T05:27:45.026Z,59.67
2022-09-20T05:29:09.618Z,59.65
2022-09-20T05:30:22.484Z,59.61
2022-09-20T05:31:48.174Z,59.57
2022-09-20T05:33:26.224Z,59.51
2022-09-20T05:34:35.715Z,59.49
2022-09-20T05:36:02.791Z,59.57
2022-09-20T05:37:25.755Z,59.60
2022-09-20T05:38:50.238Z,59.63
2022-09-20T05:39:56.726Z,59.50
2022-09-20T05:41:17.067Z,59.48
2022-09-20T05:42:38.565Z,59.32
2022-09-20T05:45:22.974Z,59.21
2022-09-20T05:47:01.190Z,59.12
2022-09-20T05:48:19.413Z,58.97
2022-09-20T05:49:25.934Z,58.86
2022-09-20T05:50:32.803Z,58.69
2022-09-20T05:52:02.155Z,58.53
2022-09-20T05:53:31.374Z,58.48
2022-09-20T05:54:57.188Z,58.27
2022-09-20T05:56:26.207Z,58.21
2022-09-20T05:57:49.376Z,58.17
2022-09-20T05:59:14.532Z,58.10
2022-09-20T06:00:21.493Z,58.06
2022-09-20T06:01:37.145Z,58.00
2022-09-20T06:03:18.409Z,57.99
2022-09-20T06:04:27.734Z,57.84
2022-09-20T06:05:55.368Z,57.79
2022-09-20T06:07:20.097Z,57.77
2022-09-20T06:08:58.364Z,57.70
2022-09-20T06:10:27.337Z,57.46
2022-09-20T06:12:02.694Z,57.17
2022-09-20T06:13:12.339Z,56.99
2022-09-20T06:14:27.535Z,56.66
2022-09-20T06:15:52.390Z,56.50
2022-09-20T06:17:07.851Z,56.33
2022-09-20T06:18:26.426Z,56.20
2022-09-20T06:19:48.192Z,56.02
2022-09-20T06:21:22.317Z,55.98
2022-09-20T06:22:28.864Z,56.02
2022-09-20T06:23:34.001Z,55.90
2022-09-20T06:25:04.753Z,55.81
2022-09-20T06:26:11.766Z,55.70
2022-09-20T06:27:18.692Z,55.48
2022-09-20T06:28:25.124Z,55.34
2022-09-20T06:29:34.807Z,55.33
2022-09-20T06:30:42.901Z,55.16
2022-09-20T06:31:46.120Z,55.04
2022-09-20T06:32:57.170Z,54.93
2022-09-20T06:34:09.323Z,54.85
2022-09-20T06:35:12.393Z,54.79
2022-09-20T06:36:37.256Z,54.68
2022-09-20T06:38:06.606Z,54.57
2022-09-20T06:39:40.205Z,54.50
2022-09-20T06:41:04.473Z,54.53
2022-09-20T06:42:09.265Z,54.39
2022-09-20T06:43:13.919Z,54.40
2022-09-20T06:44:16.765Z,54.43
2022-09-20T06:45:19.860Z,54.50
2022-09-20T06:46:23.560Z,54.47
2022-09-20T06:47:26.469Z,54.46
2022-09-20T06:48:31.161Z,54.49
2022-09-20T06:49:35.503Z,54.46
2022-09-20T06:50:39.293Z,54.47
2022-09-20T06:51:42.986Z,54.43
2022-09-20T06:52:46.972Z,54.39
2022-09-20T06:53:50.375Z,54.28
2022-09-20T06:54:55.495Z,54.25
2022-09-20T06:56:00.397Z,54.26
2022-09-20T06:57:05.718Z,54.18
2022-09-20T06:58:09.324Z,54.18
2022-09-20T06:59:12.573Z,54.00
2022-09-20T07:00:16.009Z,53.91
2022-09-20T07:01:29.628Z,53.78
2022-09-20T07:02:26.604Z,53.69
2022-09-20T07:03:31.328Z,53.57
2022-09-20T07:04:35.164Z,53.44
2022-09-20T07:05:38.594Z,53.42
2022-09-20T07:06:41.626Z,53.38
2022-09-20T07:07:44.935Z,53.35
2022-09-20T07:08:48.366Z,53.35
2022-09-20T07:09:51.217Z,53.24
2022-09-20T07:10:54.361Z,53.08
2022-09-20T07:11:58.603Z,52.99
2022-09-20T07:13:02.181Z,52.90
2022-09-20T07:14:07.370Z,52.91
2022-09-20T07:15:10.469Z,52.87
2022-09-20T07:16:14.582Z,52.87
2022-09-20T07:17:17.492Z,52.86
2022-09-20T07:18:20.591Z,52.70
2022-09-20T07:19:23.731Z,52.52
2022-09-20T07:20:27.648Z,52.41
2022-09-20T07:21:30.582Z,52.32
2022-09-20T07:22:33.409Z,52.32
2022-09-20T07:23:36.234Z,52.24
2022-09-20T07:24:39.971Z,52.15
2022-09-20T07:25:42.908Z,52.09
2022-09-20T07:26:57.930Z,52.11
2022-09-20T07:28:01.299Z,52.07
2022-09-20T07:29:06.226Z,52.08
2022-09-20T07:30:10.645Z,52.05
2022-09-20T07:31:13.887Z,52.03
2022-09-20T07:32:17.348Z,52.15
2022-09-20T07:33:21.245Z,52.18
2022-09-20T07:34:25.175Z,52.28
2022-09-20T07:35:28.658Z,52.07
2022-09-20T07:36:31.915Z,51.99
2022-09-20T07:37:37.258Z,52.04
2022-09-20T07:38:41.480Z,52.02
2022-09-20T07:39:45.449Z,51.89
2022-09-20T07:40:57.130Z,51.82
2022-09-20T07:42:01.350Z,51.64
2022-09-20T07:43:04.327Z,51.46
2022-09-20T07:44:27.209Z,51.37
2022-09-20T07:45:31.023Z,51.31
2022-09-20T07:46:35.561Z,51.25
2022-09-20T07:47:40.516Z,51.19
2022-09-20T07:48:43.689Z,51.10
2022-09-20T07:49:46.737Z,51.08
2022-09-20T07:50:56.075Z,50.98
2022-09-20T07:51:59.050Z,50.72
2022-09-20T07:53:03.456Z,50.60
2022-09-20T07:54:06.438Z,50.52
2022-09-20T07:55:09.290Z,50.43
2022-09-20T07:56:15.081Z,50.37
2022-09-20T07:57:18.058Z,50.33
2022-09-20T07:58:21.412Z,50.29
2022-09-20T07:59:25.367Z,50.08
2022-09-20T08:00:28.899Z,50.08
2022-09-20T08:01:31.953Z,50.01
2022-09-20T08:02:35.004Z,49.93
2022-09-20T08:03:38.118Z,49.90
2022-09-20T08:04:41.160Z,49.90
2022-09-20T08:05:44.090Z,49.87
2022-09-20T08:06:47.178Z,49.77
2022-09-20T08:07:50.348Z,49.70
2022-09-20T08:08:53.921Z,49.67
2022-09-20T08:09:56.888Z,49.61
2022-09-20T08:11:06.479Z,49.48
2022-09-20T08:14:21.351Z,49.21
2022-09-20T08:15:25.374Z,49.17
2022-09-20T08:16:30.065Z,49.22
2022-09-20T08:17:33.134Z,49.20
2022-09-20T08:18:36.790Z,49.30
2022-09-20T08:19:40.248Z,49.30
2022-09-20T08:20:43.218Z,49.25
2022-09-20T08:21:46.529Z,49.15
2022-09-20T08:23:06.381Z,49.00
2022-09-20T08:23:54.206Z,48.95
2022-09-20T08:24:57.140Z,48.83
2022-09-20T08:26:02.167Z,48.71
2022-09-20T08:27:05.301Z,48.74
2022-09-20T08:28:08.173Z,48.58
2022-09-20T08:29:11.698Z,48.57
2022-09-20T08:30:14.933Z,48.48
2022-09-20T08:31:21.649Z,48.47
2022-09-20T08:32:24.813Z,48.29
2022-09-20T08:33:28.100Z,48.23
2022-09-20T08:34:31.049Z,48.22
2022-09-20T09:06:00.907Z,44.50
2022-09-20T09:07:04.319Z,44.19
2022-09-20T09:08:16.974Z,43.97
2022-09-20T09:09:26.272Z,43.76
2022-09-20T09:10:34.022Z,43.61
2022-09-20T09:11:38.907Z,43.61
2022-09-20T09:12:48.799Z,43.62
2022-09-20T09:13:57.446Z,43.70
2022-09-20T09:15:03.983Z,43.66
2022-09-20T09:16:10.804Z,43.52
2022-09-20T09:17:16.889Z,43.38
2022-09-20T09:18:19.819Z,43.36
2022-09-20T09:19:33.330Z,43.42
2022-09-20T09:20:35.196Z,43.52
2022-09-20T09:21:41.664Z,43.64
2022-09-20T09:22:45.433Z,43.60
2022-09-20T09:23:56.601Z,43.40
2022-09-20T09:25:18.047Z,43.50
2022-09-20T09:26:23.217Z,43.44
2022-09-20T09:27:26.174Z,43.21
2022-09-20T09:28:31.140Z,43.22
2022-09-20T09:29:35.001Z,43.22
2022-09-20T09:30:44.283Z,43.29
2022-09-20T09:31:52.084Z,43.42
2022-09-20T09:34:30.383Z,43.38
2022-09-20T09:35:35.436Z,43.30
2022-09-20T09:36:43.919Z,43.23
2022-09-20T09:37:56.568Z,42.92
2022-09-20T09:39:29.125Z,42.74
2022-09-20T09:40:32.568Z,42.24
2022-09-20T09:41:36.373Z,41.81
2022-09-20T09:42:48.573Z,41.69
2022-09-20T09:44:05.879Z,41.53
2022-09-20T09:45:14.939Z,41.71
2022-09-20T09:46:21.613Z,41.82
2022-09-20T09:47:28.981Z,41.67
2022-09-20T09:48:32.230Z,41.42
2022-09-20T09:49:35.564Z,41.13
2022-09-20T09:50:39.513Z,40.96
2022-09-20T09:52:09.007Z,40.62
2022-09-20T09:53:15.563Z,40.23
2022-09-20T09:54:19.179Z,40.11
2022-09-20T09:55:22.953Z,39.90
2022-09-20T09:56:32.970Z,39.72
2022-09-20T09:58:03.682Z,39.42
2022-09-20T09:59:12.890Z,39.26
2022-09-20T10:00:22.674Z,39.28
2022-09-20T10:01:33.213Z,39.22
2022-09-20T10:02:53.104Z,39.05
2022-09-20T10:04:02.603Z,38.85
2022-09-20T10:05:34.882Z,38.79
2022-09-20T10:06:52.443Z,38.85
2022-09-20T10:08:15.636Z,39.05
2022-09-20T10:09:28.374Z,39.28
2022-09-20T10:10:50.520Z,39.36
2022-09-20T10:12:06.100Z,39.33
2022-09-20T10:13:39.634Z,39.20
2022-09-20T10:15:10.529Z,39.22
2022-09-20T10:16:34.194Z,39.32
2022-09-20T10:17:59.724Z,38.95
2022-09-20T10:19:06.541Z,38.62
2022-09-20T10:20:22.088Z,38.38
2022-09-20T10:21:31.614Z,38.18
2022-09-20T10:23:00.117Z,38.16
2022-09-20T10:24:09.428Z,38.26
2022-09-20T10:25:23.399Z,38.37
2022-09-20T10:26:33.078Z,38.71
2022-09-20T10:27:57.335Z,38.81
2022-09-20T10:29:15.152Z,38.91
2022-09-20T10:30:24.777Z,39.01
2022-09-20T10:33:19.203Z,38.60
2022-09-20T10:34:49.008Z,38.50
2022-09-20T10:36:01.203Z,38.33
2022-09-20T10:37:07.674Z,38.37
2022-09-20T10:38:21.135Z,38.64
2022-09-20T10:39:33.753Z,38.68
2022-09-20T10:40:58.426Z,38.67
2022-09-20T10:42:43.129Z,38.79
2022-09-20T10:43:55.596Z,38.64
2022-09-20T10:45:05.416Z,38.34
2022-09-20T10:46:33.347Z,38.25
2022-09-20T10:47:58.621Z,38.18
2022-09-20T10:49:11.480Z,38.10
2022-09-20T10:50:30.376Z,38.10
2022-09-20T10:51:52.671Z,38.22
2022-09-20T10:53:18.742Z,38.24
2022-09-20T10:54:47.972Z,38.00
2022-09-20T10:56:20.253Z,37.94
2022-09-20T10:57:37.132Z,37.91
2022-09-20T10:59:00.193Z,37.85
2022-09-20T11:00:24.239Z,37.71
2022-09-20T11:02:03.824Z,37.67
2022-09-20T11:03:16.230Z,37.26
2022-09-20T11:04:39.424Z,37.16
2022-09-20T11:05:54.744Z,37.30
2022-09-20T11:07:34.602Z,37.42
2022-09-20T11:08:39.561Z,37.41
2022-09-20T11:09:49.840Z,37.38
2022-09-20T11:10:59.634Z,37.40
2022-09-20T11:12:15.713Z,37.40
2022-09-20T11:13:28.408Z,37.53
2022-09-20T11:15:47.891Z,37.37
2022-09-20T11:16:54.537Z,37.29
2022-09-20T11:18:17.913Z,37.20
2022-09-20T11:19:44.946Z,37.04
2022-09-20T11:20:51.489Z,36.91
2022-09-20T11:22:07.172Z,36.78
2022-09-20T11:23:20.757Z,36.73
2022-09-20T11:24:34.574Z,36.55
2022-09-20T11:25:44.013Z,36.44
2022-09-20T11:26:53.490Z,36.43
2022-09-20T11:28:21.294Z,36.19
2022-09-20T11:29:28.050Z,36.32
2022-09-20T11:30:34.208Z,36.31
2022-09-20T11:31:41.251Z,36.51
2022-09-20T11:33:21.012Z,36.92
2022-09-20T11:34:27.579Z,37.12
2022-09-20T11:35:52.070Z,37.00
2022-09-20T11:37:01.930Z,36.81
2022-09-20T11:38:09.151Z,36.90
2022-09-20T11:39:24.117Z,36.84
2022-09-20T11:40:30.913Z,36.92
2022-09-20T11:41:34.668Z,37.17
2022-09-20T11:42:41.142Z,37.26
2022-09-20T11:43:45.853Z,37.22
2022-09-20T11:44:50.019Z,37.29
2022-09-20T11:45:57.394Z,37.63
2022-09-20T11:47:13.197Z,37.87
2022-09-20T11:48:31.799Z,37.95
2022-09-20T11:49:56.494Z,37.78
2022-09-20T11:51:21.438Z,37.72
2022-09-20T11:52:44.681Z,37.53
2022-09-20T11:54:12.157Z,37.26
2022-09-20T11:55:30.427Z,37.15
2022-09-20T11:56:34.104Z,36.99
2022-09-20T11:57:37.700Z,37.07
2022-09-20T11:58:52.299Z,37.18
2022-09-20T11:59:58.411Z,37.25
2022-09-20T12:01:02.140Z,37.34
2022-09-20T12:02:18.527Z,37.40
2022-09-20T12:03:31.066Z,37.59
2022-09-20T12:04:35.785Z,37.67
2022-09-20T12:05:41.753Z,37.53
2022-09-20T12:06:45.823Z,37.55
2022-09-20T12:07:52.994Z,37.56
2022-09-20T12:08:58.075Z,37.58
2022-09-20T12:10:04.586Z,37.55
2022-09-20T12:11:10.865Z,37.56
2022-09-20T12:12:35.878Z,37.68
2022-09-20T12:13:41.995Z,37.66
2022-09-20T12:14:48.433Z,37.72
2022-09-20T12:16:03.765Z,37.62
2022-09-20T12:17:26.890Z,37.56
2022-09-20T12:18:36.284Z,37.46
2022-09-20T12:19:39.947Z,37.46
2022-09-20T12:20:52.738Z,37.63
2022-09-20T12:22:03.546Z,37.78
2022-09-20T12:23:44.770Z,37.80
2022-09-20T12:24:51.363Z,37.88
2022-09-20T12:26:03.814Z,37.92
2022-09-20T12:27:28.840Z,38.01
2022-09-20T12:28:38.485Z,38.15
2022-09-20T12:29:53.834Z,38.16
2022-09-20T12:31:20.326Z,38.21
2022-09-20T12:32:47.353Z,38.14
2022-09-20T12:34:02.094Z,38.18
2022-09-20T12:35:39.264Z,38.27
2022-09-20T12:36:45.959Z,38.34
2022-09-20T12:37:48.808Z,38.37
2022-09-20T12:39:17.544Z,38.47
2022-09-20T12:40:19.526Z,38.56
2022-09-20T12:41:28.324Z,38.58
2022-09-20T12:42:31.349Z,38.58
2022-09-20T12:43:37.197Z,38.61
2022-09-20T12:44:53.964Z,38.66
2022-09-20T12:46:02.569Z,38.86
2022-09-20T12:47:09.464Z,38.96
2022-09-20T12:48:15.898Z,39.10
2022-09-20T12:49:40.812Z,39.09
2022-09-20T12:51:05.664Z,39.09
2022-09-20T12:52:47.262Z,38.92
2022-09-20T12:54:02.387Z,38.83
2022-09-20T12:56:13.826Z,38.91
2022-09-20T12:57:20.364Z,38.91
2022-09-20T12:59:44.176Z,39.00
2022-09-20T13:00:50.905Z,38.98
2022-09-20T13:01:53.868Z,38.86
2022-09-20T13:02:59.042Z,38.73
2022-09-20T13:04:34.012Z,38.89
2022-09-20T13:05:40.265Z,38.83
2022-09-20T13:06:43.774Z,38.91
2022-09-20T13:07:49.716Z,39.07
2022-09-20T13:09:05.221Z,39.28
2022-09-20T13:10:23.786Z,39.39
2022-09-20T13:11:30.715Z,39.52
2022-09-20T13:12:36.922Z,39.39
2022-09-20T13:13:58.563Z,39.58
2022-09-20T13:15:02.792Z,39.64
2022-09-20T13:16:07.182Z,39.29
2022-09-20T13:17:30.352Z,39.28
2022-09-20T13:18:35.854Z,39.15
2022-09-20T13:19:50.282Z,38.96
2022-09-20T13:20:56.049Z,38.88
2022-09-20T13:22:32.596Z,38.80
2022-09-20T13:23:39.822Z,38.71
2022-09-20T13:24:54.207Z,38.56
2022-09-20T13:25:58.115Z,38.62
2022-09-20T13:27:20.050Z,38.88
2022-09-20T13:28:36.022Z,38.93
2022-09-20T13:29:41.806Z,39.06
2022-09-20T13:30:45.187Z,39.26
2022-09-20T13:31:48.557Z,39.38
2022-09-20T13:32:51.565Z,39.38
2022-09-20T13:33:54.727Z,39.30
2022-09-20T13:35:09.802Z,39.39
2022-09-20T13:36:13.976Z,39.46
2022-09-20T13:37:21.026Z,39.35
2022-09-20T13:38:27.960Z,39.25
2022-09-20T13:39:35.559Z,39.33
2022-09-20T13:40:46.719Z,39.38
2022-09-20T13:41:50.070Z,39.09
2022-09-20T13:43:19.557Z,39.01
2022-09-20T13:44:00.503Z,38.93
2022-09-20T13:45:04.838Z,38.99
2022-09-20T13:46:16.755Z,38.85
2022-09-20T13:47:22.766Z,38.92
2022-09-20T13:48:28.540Z,39.09
2022-09-20T13:49:32.363Z,39.07
2022-09-20T13:50:37.253Z,38.97
2022-09-20T13:51:40.233Z,38.83
2022-09-20T13:52:54.856Z,38.84
2022-09-20T13:54:18.028Z,38.79
2022-09-20T13:55:32.970Z,38.74
2022-09-20T13:56:37.561Z,38.83
2022-09-20T13:57:40.974Z,38.93
2022-09-20T13:58:44.052Z,38.92
2022-09-20T13:59:48.256Z,38.80
2022-09-20T14:00:55.066Z,38.86
2022-09-20T14:01:59.051Z,38.88
2022-09-20T14:03:02.157Z,38.97
2022-09-20T14:04:08.666Z,38.84
2022-09-20T14:05:18.268Z,38.68
2022-09-20T14:06:29.107Z,38.65
2022-09-20T14:07:33.361Z,38.55
2022-09-20T14:08:46.715Z,38.42
2022-09-20T14:09:51.245Z,38.18
2022-09-20T14:11:06.064Z,38.07
2022-09-20T14:12:11.906Z,37.98
2022-09-20T14:13:16.852Z,37.95
2022-09-20T14:14:22.357Z,38.06
2022-09-20T14:15:29.000Z,38.08
2022-09-20T14:16:43.774Z,38.09
2022-09-20T14:17:47.788Z,37.90
2022-09-20T14:18:51.300Z,37.84
2022-09-20T14:19:55.270Z,37.91
2022-09-20T14:20:59.803Z,38.01
2022-09-20T14:22:04.305Z,38.20
2022-09-20T14:23:22.052Z,38.21
2022-09-20T14:24:28.236Z,38.29
2022-09-20T14:25:33.120Z,38.24
2022-09-20T14:26:39.196Z,38.33
2022-09-20T14:27:42.927Z,38.29
2022-09-20T14:28:46.222Z,38.28
2022-09-20T14:29:51.893Z,38.29
2022-09-20T14:30:58.563Z,38.29
2022-09-20T14:32:07.698Z,38.32
2022-09-20T14:33:14.106Z,38.30
2022-09-20T14:34:17.015Z,38.35
2022-09-20T14:35:21.673Z,38.51
2022-09-20T14:36:27.856Z,38.67
2022-09-20T14:37:49.351Z,38.77
2022-09-20T14:38:55.416Z,38.84
2022-09-20T14:40:01.652Z,39.00
2022-09-20T14:41:05.117Z,39.11
2022-09-20T14:42:20.466Z,39.27
2022-09-20T14:43:26.908Z,39.36
2022-09-20T14:44:34.138Z,39.44
2022-09-20T14:45:39.408Z,39.61
2022-09-20T14:46:42.611Z,39.69
2022-09-20T14:48:10.139Z,39.74
2022-09-20T14:49:31.277Z,39.84
2022-09-20T14:50:38.574Z,39.86
2022-09-20T14:51:41.488Z,39.96
2022-09-20T14:52:44.870Z,40.12
2022-09-20T14:53:51.308Z,40.20
2022-09-20T14:55:11.367Z,40.30
2022-09-20T14:56:17.244Z,40.35
2022-09-20T14:57:21.735Z,40.49
2022-09-20T14:58:25.623Z,40.54
2022-09-20T14:59:39.435Z,40.59
2022-09-20T15:00:58.048Z,40.63
2022-09-20T15:02:04.463Z,40.71
2022-09-20T15:03:08.659Z,40.79
2022-09-20T15:05:31.752Z,40.84
2022-09-20T15:06:38.370Z,40.85
2022-09-20T15:07:41.377Z,41.01
2022-09-20T15:08:46.794Z,41.08
2022-09-20T15:09:49.905Z,41.11
2022-09-20T15:10:53.267Z,41.10
2022-09-20T15:12:03.921Z,41.14
2022-09-20T15:13:08.471Z,41.13
2022-09-20T15:14:11.367Z,41.17
2022-09-20T15:15:16.887Z,41.20
2022-09-20T15:16:19.896Z,41.27
2022-09-20T15:17:23.027Z,41.30
2022-09-20T15:18:29.163Z,41.41
2022-09-20T15:19:32.242Z,41.46
2022-09-20T15:20:35.227Z,41.67
2022-09-20T15:21:38.448Z,41.75
2022-09-20T15:22:42.181Z,41.92
2022-09-20T15:23:45.155Z,42.05
2022-09-20T15:24:47.988Z,42.19
2022-09-20T15:25:52.584Z,42.32
2022-09-20T15:26:55.567Z,42.43
2022-09-20T15:27:58.614Z,42.61
2022-09-20T15:29:01.473Z,42.63
2022-09-20T15:30:05.101Z,42.75
2022-09-20T15:31:09.718Z,42.74
2022-09-20T15:32:12.807Z,42.83
2022-09-20T15:33:16.486Z,42.89
2022-09-20T15:34:19.321Z,43.03
2022-09-20T15:35:22.182Z,43.13
2022-09-20T15:36:27.720Z,43.26
2022-09-20T15:37:30.576Z,43.26
2022-09-20T15:38:34.227Z,43.36
2022-09-20T15:39:37.148Z,43.44
2022-09-20T15:40:45.599Z,43.55
2022-09-20T15:41:53.427Z,43.55
2022-09-20T15:42:57.648Z,43.59
2022-09-20T15:44:00.997Z,43.74
2022-09-20T15:45:11.791Z,43.92
2022-09-20T15:46:21.444Z,43.85
2022-09-20T15:47:24.544Z,43.81
2022-09-20T15:48:30.046Z,43.81
2022-09-20T15:49:33.155Z,43.90
2022-09-20T15:50:36.573Z,44.00
2022-09-20T15:51:39.581Z,44.22
2022-09-20T15:52:42.746Z,44.22
2022-09-20T15:53:49.172Z,44.38
2022-09-20T15:54:52.137Z,44.34
2022-09-20T15:55:55.227Z,44.41
2022-09-20T15:56:58.289Z,44.53
2022-09-20T15:58:01.317Z,44.53
2022-09-20T15:59:06.552Z,44.64
2022-09-20T16:00:10.644Z,44.64
2022-09-20T16:01:16.073Z,44.80
2022-09-20T16:02:21.129Z,44.89
2022-09-20T16:03:29.455Z,44.98
2022-09-20T16:04:34.086Z,45.09
2022-09-20T16:05:37.157Z,45.13
2022-09-20T16:06:42.178Z,45.12
2022-09-20T16:07:46.656Z,45.23
2022-09-20T16:08:49.809Z,45.20
2022-09-20T16:09:56.291Z,45.34
2022-09-20T16:11:00.553Z,45.40
2022-09-20T16:12:04.028Z,45.38
2022-09-20T16:13:06.977Z,45.52
2022-09-20T16:14:09.914Z,45.54
2022-09-20T16:15:13.162Z,45.60
2022-09-20T16:16:17.184Z,45.65
2022-09-20T16:17:22.019Z,45.66